createdAt,value
2022-08-19T00:01:53.786Z,18.42
2022-08-19T00:04:24.069Z,16.33
2022-08-19T00:06:51.764Z,17.15
2022-08-19T00:09:20.707Z,16.20
2022-08-19T00:11:47.810Z,20.40
2022-08-19T00:14:17.407Z,20.63
2022-08-19T00:16:46.493Z,23.83
2022-08-19T00:19:13.402Z,18.85
2022-08-19T00:21:40.820Z,18.15
2022-08-19T00:24:09.825Z,19.13
2022-08-19T00:26:37.635Z,20.65
2022-08-19T00:29:06.597Z,21.15
2022-08-19T00:31:33.612Z,18.83
2022-08-19T00:34:00.341Z,18.05
2022-08-19T00:36:27.430Z,16.95
2022-08-19T00:38:54.311Z,20.83
2022-08-19T00:41:22.817Z,24.77
2022-08-19T00:44:05.432Z,18.83
2022-08-19T00:46:34.239Z,19.65
2022-08-19T00:49:07.585Z,19.95
2022-08-19T00:51:35.553Z,17.83
2022-08-19T00:54:03.392Z,17.67
2022-08-19T00:56:31.820Z,22.48
2022-08-19T00:58:59.796Z,19.95
2022-08-19T01:01:27.373Z,20.92
2022-08-19T01:03:57.552Z,29.58
2022-08-19T01:06:26.248Z,20.53
2022-08-19T01:08:53.024Z,20.00
2022-08-19T01:11:19.850Z,25.80
2022-08-19T01:13:49.944Z,18.17
2022-08-19T01:16:18.709Z,19.48
2022-08-19T01:18:46.470Z,18.85
2022-08-19T01:21:38.928Z,23.63
2022-08-19T01:24:05.699Z,24.65
2022-08-19T01:26:32.408Z,18.75
2022-08-19T01:29:02.016Z,20.67
2022-08-19T01:31:32.781Z,18.77
2022-08-19T01:34:01.317Z,18.55
2022-08-19T01:36:40.197Z,17.70
2022-08-19T01:39:11.106Z,20.15
2022-08-19T01:41:38.278Z,21.93
2022-08-19T01:44:17.842Z,20.75
2022-08-19T01:46:48.592Z,19.95
2022-08-19T01:49:16.847Z,32.72
2022-08-19T01:51:43.734Z,36.80
2022-08-19T01:54:12.604Z,32.58
2022-08-19T01:56:39.649Z,22.33
2022-08-19T01:59:13.231Z,31.30
2022-08-19T02:01:40.234Z,37.60
2022-08-19T02:04:07.174Z,36.72
2022-08-19T02:06:34.245Z,31.73
2022-08-19T02:09:01.332Z,42.33
2022-08-19T02:11:32.710Z,28.13
2022-08-19T02:14:00.532Z,30.20
2022-08-19T02:16:27.339Z,29.63
2022-08-19T02:18:54.058Z,26.92
2022-08-19T02:21:23.254Z,24.70
2022-08-19T02:23:51.340Z,27.98
2022-08-19T02:26:19.682Z,29.08
2022-08-19T02:28:47.247Z,30.02
2022-08-19T02:31:16.882Z,29.13
2022-08-19T02:33:43.732Z,31.65
2022-08-19T02:36:13.654Z,27.55
2022-08-19T02:41:23.195Z,27.23
2022-08-19T02:44:30.635Z,23.45
2022-08-19T02:46:41.811Z,26.92
2022-08-19T02:49:09.197Z,25.88
2022-08-19T02:51:42.909Z,25.08
2022-08-19T02:54:12.413Z,25.40
2022-08-19T02:56:41.169Z,30.35
2022-08-19T02:59:12.758Z,27.33
2022-08-19T03:01:42.503Z,27.88
2022-08-19T03:04:13.195Z,28.70
2022-08-19T03:06:41.720Z,28.83
2022-08-19T03:09:09.235Z,30.67
2022-08-19T03:11:36.272Z,29.50
2022-08-19T03:14:05.000Z,28.08
2022-08-19T03:16:34.720Z,28.50
2022-08-19T03:19:03.299Z,28.90
2022-08-19T03:21:32.876Z,33.55
2022-08-19T03:24:05.272Z,32.60
2022-08-19T03:26:32.546Z,29.75
2022-08-19T03:29:04.974Z,30.70
2022-08-19T03:31:43.770Z,29.35
2022-08-19T03:34:28.382Z,29.20
2022-08-19T03:36:57.173Z,34.45
2022-08-19T03:39:25.136Z,33.55
2022-08-19T03:42:45.370Z,29.73
2022-08-19T03:44:40.624Z,34.50
2022-08-19T03:47:07.410Z,30.58
2022-08-19T03:49:36.181Z,35.20
2022-08-19T03:52:06.024Z,30.17
2022-08-19T03:54:32.796Z,35.28
2022-08-19T03:56:59.601Z,35.78
2022-08-19T03:59:29.717Z,36.42
2022-08-19T04:01:58.317Z,36.40
2022-08-19T04:04:29.015Z,34.67
2022-08-19T04:06:57.191Z,31.20
2022-08-19T04:09:23.980Z,40.97
2022-08-19T04:11:54.882Z,33.53
2022-08-19T04:14:25.232Z,39.17
2022-08-19T04:16:52.272Z,37.03
2022-08-19T04:19:20.284Z,41.63
2022-08-19T04:21:49.943Z,35.72
2022-08-19T04:24:17.243Z,44.35
2022-08-19T04:26:44.777Z,43.15
2022-08-19T04:29:23.230Z,29.77
2022-08-19T04:31:50.547Z,30.35
2022-08-19T04:34:20.408Z,30.58
2022-08-19T04:36:47.034Z,36.63
2022-08-19T04:39:17.011Z,32.67
2022-08-19T04:42:03.870Z,30.80
2022-08-19T04:44:33.319Z,27.98
2022-08-19T04:47:02.523Z,28.10
2022-08-19T04:49:38.450Z,28.63
2022-08-19T04:52:05.147Z,23.45
2022-08-19T04:54:37.645Z,31.15
2022-08-19T04:57:08.536Z,24.48
2022-08-19T04:59:36.649Z,23.25
2022-08-19T05:02:04.131Z,23.83
2022-08-19T05:04:31.980Z,24.92
2022-08-19T05:07:01.012Z,20.35
2022-08-19T05:09:28.544Z,18.40
2022-08-19T05:12:15.406Z,24.13
2022-08-19T05:14:42.195Z,20.05
2022-08-19T05:17:26.760Z,16.40
2022-08-19T05:20:13.505Z,18.00
2022-08-19T05:22:40.777Z,21.80
2022-08-19T05:25:14.639Z,25.30
2022-08-19T05:27:42.912Z,21.08
2022-08-19T05:30:10.987Z,16.52
2022-08-19T05:32:37.785Z,16.20
2022-08-19T05:35:05.484Z,16.33
2022-08-19T05:37:32.241Z,19.05
2022-08-19T05:39:59.000Z,19.70
2022-08-19T05:42:27.541Z,16.02
2022-08-19T05:44:54.652Z,15.98
2022-08-19T05:47:21.665Z,18.70
2022-08-19T05:49:50.724Z,14.10
2022-08-19T05:52:19.053Z,16.45
2022-08-19T05:54:50.877Z,16.38
2022-08-19T05:57:20.519Z,16.73
2022-08-19T05:59:52.623Z,18.83
2022-08-19T06:02:20.344Z,19.10
2022-08-19T06:04:47.261Z,17.27
2022-08-19T06:07:14.041Z,16.13
2022-08-19T06:09:41.394Z,19.45
2022-08-19T06:12:10.685Z,15.75
2022-08-19T06:14:41.878Z,17.63
2022-08-19T06:17:09.312Z,23.25
2022-08-19T06:19:40.717Z,21.23
2022-08-19T06:22:08.646Z,18.25
2022-08-19T06:24:36.232Z,16.35
2022-08-19T06:27:04.570Z,18.42
2022-08-19T06:29:32.383Z,16.70
2022-08-19T06:32:01.379Z,18.27
2022-08-19T06:34:31.021Z,17.00
2022-08-19T06:37:02.103Z,16.63
2022-08-19T06:39:33.701Z,19.40
2022-08-19T06:44:30.441Z,21.90
2022-08-19T06:46:58.812Z,18.23
2022-08-19T06:49:26.105Z,20.85
2022-08-19T06:51:52.781Z,23.30
2022-08-19T06:54:20.551Z,19.77
2022-08-19T06:56:47.696Z,18.08
2022-08-19T06:59:21.361Z,23.15
2022-08-19T07:01:53.949Z,20.45
2022-08-19T07:04:23.811Z,21.17
2022-08-19T07:06:57.820Z,17.40
2022-08-19T07:09:27.141Z,18.88
2022-08-19T07:11:54.521Z,18.38
2022-08-19T07:14:26.202Z,19.20
2022-08-19T07:16:55.964Z,25.25
2022-08-19T07:19:25.485Z,18.30
2022-08-19T07:21:55.131Z,19.65
2022-08-19T07:24:27.083Z,20.65
2022-08-19T07:27:01.375Z,21.08
2022-08-19T07:29:29.547Z,22.88
2022-08-19T07:31:57.673Z,20.55
2022-08-19T07:34:28.420Z,17.30
2022-08-19T07:36:56.553Z,22.60
2022-08-19T07:39:35.053Z,27.02
2022-08-19T07:42:07.295Z,21.65
2022-08-19T07:44:35.064Z,21.55
2022-08-19T07:47:02.321Z,23.23
2022-08-19T07:49:29.516Z,19.00
2022-08-19T07:52:02.211Z,20.35
2022-08-19T07:54:31.657Z,17.67
2022-08-19T07:56:58.536Z,22.42
2022-08-19T07:59:25.888Z,20.05
2022-08-19T08:01:53.612Z,20.13
2022-08-19T08:04:39.341Z,22.08
2022-08-19T08:07:31.454Z,19.25
2022-08-19T08:09:59.451Z,17.92
2022-08-19T08:12:35.376Z,19.13
2022-08-19T08:15:08.183Z,22.52
2022-08-19T08:17:49.679Z,21.05
2022-08-19T08:20:19.783Z,20.20
2022-08-19T08:23:06.813Z,20.52
2022-08-19T08:25:34.438Z,22.10
2022-08-19T08:28:02.645Z,25.63
2022-08-19T08:30:31.273Z,22.35
2022-08-19T08:33:00.370Z,20.00
2022-08-19T08:35:29.529Z,23.98
2022-08-19T08:37:57.675Z,18.92
2022-08-19T08:40:30.275Z,20.10
2022-08-19T08:43:07.329Z,21.88
2022-08-19T08:45:53.453Z,27.33
2022-08-19T08:48:54.241Z,20.35
2022-08-19T08:51:44.956Z,26.08
2022-08-19T08:54:19.053Z,25.52
2022-08-19T08:56:49.614Z,24.70
2022-08-19T08:59:33.287Z,26.80
2022-08-19T09:02:01.084Z,22.60
2022-08-19T09:04:28.630Z,22.08
2022-08-19T09:07:35.879Z,21.08
2022-08-19T09:10:25.979Z,21.33
2022-08-19T09:13:20.300Z,21.35
2022-08-19T09:16:02.833Z,21.17
2022-08-19T09:18:48.167Z,21.92
2022-08-19T09:21:16.582Z,23.10
2022-08-19T09:23:44.874Z,27.67
2022-08-19T09:26:16.395Z,19.70
2022-08-19T09:28:48.378Z,22.02
2022-08-19T09:31:21.611Z,23.10
2022-08-19T09:33:49.447Z,20.27
2022-08-19T09:36:34.858Z,19.88
2022-08-19T09:39:02.506Z,21.77
2022-08-19T09:41:29.787Z,17.80
2022-08-19T09:43:58.542Z,19.00
2022-08-19T09:46:28.516Z,17.17
2022-08-19T09:49:06.425Z,17.17
2022-08-19T09:51:34.210Z,19.80
2022-08-19T09:54:04.559Z,16.08
2022-08-19T09:56:32.126Z,15.85
2022-08-19T09:59:00.741Z,15.95
2022-08-19T10:01:30.416Z,16.27
2022-08-19T10:03:59.023Z,16.08
2022-08-19T10:06:46.446Z,16.88
2022-08-19T10:09:16.196Z,16.58
2022-08-19T10:11:54.579Z,18.15
2022-08-19T10:14:24.689Z,18.08
2022-08-19T10:16:52.846Z,19.48
2022-08-19T10:19:25.879Z,19.90
2022-08-19T10:21:54.323Z,22.48
2022-08-19T10:24:25.404Z,15.35
2022-08-19T10:26:57.350Z,19.08
2022-08-19T10:29:32.507Z,14.35
2022-08-19T10:32:09.629Z,15.00
2022-08-19T10:34:48.137Z,14.85
2022-08-19T10:37:23.514Z,15.35
2022-08-19T10:39:51.383Z,13.70
2022-08-19T10:42:19.689Z,15.55
2022-08-19T10:44:47.701Z,17.38
2022-08-19T10:47:17.738Z,14.65
2022-08-19T10:50:11.768Z,13.48
2022-08-19T10:52:49.823Z,16.55
2022-08-19T10:55:39.193Z,13.45
2022-08-19T10:58:11.999Z,16.42
2022-08-19T11:00:38.822Z,17.67
2022-08-19T11:03:05.510Z,14.88
2022-08-19T11:05:39.803Z,12.73
2022-08-19T11:08:23.487Z,19.58
2022-08-19T11:10:54.694Z,16.40
2022-08-19T11:13:21.877Z,19.58
2022-08-19T11:15:48.590Z,18.02
2022-08-19T11:18:15.416Z,17.20
2022-08-19T11:20:42.381Z,16.33
2022-08-19T11:23:09.187Z,17.10
2022-08-19T11:25:36.313Z,15.68
2022-08-19T11:28:03.409Z,16.55
2022-08-19T11:30:30.077Z,17.92
2022-08-19T11:32:56.878Z,16.00
2022-08-19T11:35:24.307Z,16.30
2022-08-19T11:37:50.998Z,15.85
2022-08-19T11:40:19.947Z,15.23
2022-08-19T11:42:56.625Z,16.10
2022-08-19T11:45:29.073Z,16.17
2022-08-19T11:47:59.658Z,14.90
2022-08-19T11:50:29.392Z,15.65
2022-08-19T11:56:06.657Z,14.15
2022-08-19T11:58:35.249Z,10.77
2022-08-19T12:01:04.617Z,13.13
2022-08-19T12:03:34.469Z,11.10
2022-08-19T12:06:09.736Z,15.27
2022-08-19T12:08:42.043Z,15.23
2022-08-19T12:11:09.057Z,10.15
2022-08-19T12:13:41.025Z,16.38
2022-08-19T12:16:13.473Z,12.10
2022-08-19T12:18:48.644Z,12.32
2022-08-19T12:21:20.118Z,9.40
2022-08-19T12:23:55.103Z,9.27
2022-08-19T12:26:22.955Z,11.43
2022-08-19T12:28:50.208Z,10.63
2022-08-19T12:31:25.953Z,10.95
2022-08-19T12:33:58.070Z,12.48
2022-08-19T12:36:25.888Z,12.15
2022-08-19T12:38:53.528Z,10.00
2022-08-19T12:41:26.177Z,9.75
2022-08-19T12:44:02.232Z,12.75
2022-08-19T12:46:32.606Z,15.07
2022-08-19T12:49:00.607Z,10.98
2022-08-19T12:51:32.531Z,9.07
2022-08-19T12:53:59.209Z,11.93
2022-08-19T12:56:26.333Z,9.85
2022-08-19T12:58:53.319Z,10.57
2022-08-19T13:01:22.749Z,11.05
2022-08-19T13:04:00.236Z,11.63
2022-08-19T13:06:30.126Z,11.23
2022-08-19T13:08:59.633Z,8.40
2022-08-19T13:11:29.498Z,7.97
2022-08-19T13:13:56.375Z,9.10
2022-08-19T13:16:24.651Z,10.38
2022-08-19T13:18:56.992Z,16.55
2022-08-19T13:21:28.181Z,25.10
2022-08-19T13:23:55.286Z,25.42
2022-08-19T13:26:22.481Z,23.38
2022-08-19T13:29:07.676Z,22.02
2022-08-19T13:31:55.051Z,22.10
2022-08-19T13:34:32.120Z,25.02
2022-08-19T13:37:05.758Z,23.60
2022-08-19T13:39:34.277Z,23.42
2022-08-19T13:42:02.696Z,27.05
2022-08-19T13:44:32.636Z,22.00
2022-08-19T13:47:07.841Z,21.75
2022-08-19T13:49:36.942Z,23.75
2022-08-19T13:52:06.049Z,21.88
2022-08-19T13:54:32.982Z,20.67
2022-08-19T13:56:59.660Z,20.45
2022-08-19T13:59:26.397Z,19.15
2022-08-19T14:01:54.373Z,18.92
2022-08-19T14:04:21.064Z,22.08
2022-08-19T14:06:47.830Z,20.63
2022-08-19T14:09:14.663Z,16.65
2022-08-19T14:11:41.389Z,16.52
2022-08-19T14:14:08.133Z,20.80
2022-08-19T14:16:34.869Z,16.48
2022-08-19T14:19:01.571Z,14.85
2022-08-19T14:21:28.309Z,13.70
2022-08-19T14:23:55.407Z,13.30
2022-08-19T14:26:23.201Z,13.60
2022-08-19T14:28:53.125Z,16.75
2022-08-19T14:31:21.036Z,14.25
2022-08-19T14:33:48.992Z,15.25
2022-08-19T14:36:16.990Z,16.52
2022-08-19T14:39:05.021Z,19.25
2022-08-19T14:41:38.784Z,15.02
2022-08-19T14:44:05.436Z,15.60
2022-08-19T14:46:32.253Z,18.63
2022-08-19T14:48:59.957Z,17.80
2022-08-19T14:51:27.837Z,18.20
2022-08-19T14:53:54.922Z,22.30
2022-08-19T14:56:25.626Z,16.02
2022-08-19T14:58:52.871Z,14.60
2022-08-19T15:01:22.078Z,17.63
2022-08-19T15:03:50.067Z,15.00
2022-08-19T15:06:16.851Z,17.65
2022-08-19T15:08:45.896Z,16.65
2022-08-19T15:11:21.977Z,19.42
2022-08-19T15:13:49.255Z,14.43
2022-08-19T15:16:17.909Z,16.15
2022-08-19T15:18:46.806Z,15.05
2022-08-19T15:21:16.047Z,18.17
2022-08-19T15:23:43.742Z,19.98
2022-08-19T15:26:16.043Z,15.43
2022-08-19T15:28:43.514Z,14.73
2022-08-19T15:31:25.136Z,12.77
2022-08-19T15:33:58.332Z,13.35
2022-08-19T15:36:27.227Z,14.18
2022-08-19T15:38:54.325Z,12.90
2022-08-19T15:41:27.485Z,14.55
2022-08-19T15:44:05.842Z,12.20
2022-08-19T15:46:34.313Z,11.70
2022-08-19T15:49:01.675Z,10.82
2022-08-19T15:51:31.273Z,11.57
2022-08-19T15:53:59.670Z,11.90
2022-08-19T15:56:27.453Z,10.77
2022-08-19T15:59:13.103Z,11.73
2022-08-19T16:01:58.681Z,10.85
2022-08-19T16:04:44.077Z,10.45
2022-08-19T16:07:12.732Z,10.57
2022-08-19T16:09:39.607Z,11.75
2022-08-19T16:12:06.606Z,10.00
2022-08-19T16:14:35.428Z,9.95
2022-08-19T16:17:02.349Z,11.05
2022-08-19T16:19:29.073Z,9.68
2022-08-19T16:21:57.055Z,11.68
2022-08-19T16:24:27.573Z,9.02
2022-08-19T16:26:55.729Z,8.50
2022-08-19T16:29:34.209Z,9.20
2022-08-19T16:32:08.045Z,8.48
2022-08-19T16:34:34.828Z,8.45
2022-08-19T16:37:02.034Z,7.68
2022-08-19T16:39:29.087Z,7.00
2022-08-19T16:41:55.801Z,7.32
2022-08-19T16:44:23.563Z,7.10
2022-08-19T16:46:58.372Z,9.35
2022-08-19T16:49:53.620Z,9.25
2022-08-19T16:52:17.994Z,8.05
2022-08-19T16:54:44.935Z,8.45
2022-08-19T16:57:12.571Z,7.32
2022-08-19T16:59:43.765Z,11.30
2022-08-19T17:02:20.076Z,7.35
2022-08-19T17:04:57.439Z,7.60
2022-08-19T17:07:32.287Z,8.20
2022-08-19T17:10:02.168Z,7.50
2022-08-19T17:12:30.612Z,7.35
2022-08-19T17:15:01.135Z,7.88
2022-08-19T17:17:29.262Z,8.80
2022-08-19T17:19:56.480Z,7.20
2022-08-19T17:22:23.169Z,8.75
2022-08-19T17:24:49.865Z,9.10
2022-08-19T17:27:16.662Z,9.80
2022-08-19T17:29:47.029Z,8.23
2022-08-19T17:32:14.556Z,9.25
2022-08-19T17:34:41.323Z,8.82
2022-08-19T17:37:08.299Z,8.60
2022-08-19T17:39:39.578Z,7.90
2022-08-19T17:42:08.070Z,9.65
2022-08-19T17:44:36.755Z,9.85
2022-08-19T17:47:04.559Z,10.30
2022-08-19T17:49:33.336Z,9.90
2022-08-19T17:52:01.649Z,9.57
2022-08-19T17:54:31.829Z,11.25
2022-08-19T17:57:01.459Z,10.52
2022-08-19T17:59:30.300Z,12.65
2022-08-19T18:01:57.789Z,17.98
2022-08-19T18:04:31.216Z,16.73
2022-08-19T18:07:05.576Z,20.88
2022-08-19T18:09:42.586Z,24.45
2022-08-19T18:12:14.222Z,24.00
2022-08-19T18:14:41.875Z,26.27
2022-08-19T18:17:12.656Z,28.67
2022-08-19T18:19:42.707Z,24.83
2022-08-19T18:22:26.860Z,25.73
2022-08-19T18:24:54.709Z,29.23
2022-08-19T18:27:22.506Z,27.83
2022-08-19T18:29:50.332Z,28.60
2022-08-19T18:32:18.101Z,27.92
2022-08-19T18:34:50.404Z,26.38
2022-08-19T18:37:17.086Z,31.80
2022-08-19T18:40:02.394Z,29.70
2022-08-19T18:42:47.713Z,33.72
2022-08-19T18:45:33.161Z,34.90
2022-08-19T18:48:27.015Z,30.98
2022-08-19T18:50:56.007Z,35.58
2022-08-19T18:53:22.743Z,32.65
2022-08-19T18:55:51.982Z,34.47
2022-08-19T18:58:19.635Z,41.63
2022-08-19T19:00:47.526Z,39.75
2022-08-19T19:03:14.236Z,32.30
2022-08-19T19:05:40.999Z,35.00
2022-08-19T19:08:08.615Z,34.00
2022-08-19T19:10:36.335Z,34.28
2022-08-19T19:13:03.177Z,32.53
2022-08-19T19:15:29.915Z,31.15
2022-08-19T19:17:56.721Z,31.88
2022-08-19T19:20:35.278Z,27.83
2022-08-19T19:23:03.385Z,28.38
2022-08-19T19:25:49.961Z,29.00
2022-08-19T19:28:16.705Z,30.52
2022-08-19T19:30:43.564Z,30.40
2022-08-19T19:33:11.904Z,29.60
2022-08-19T19:35:38.701Z,26.70
2022-08-19T19:38:11.832Z,26.02
2022-08-19T19:40:38.632Z,25.40
2022-08-19T19:43:06.373Z,27.38
2022-08-19T19:45:33.576Z,22.00
2022-08-19T19:48:00.833Z,25.45
2022-08-19T19:50:31.352Z,27.52
2022-08-19T19:52:58.683Z,23.80
2022-08-19T19:55:26.816Z,26.85
2022-08-19T19:57:54.493Z,26.50
2022-08-19T20:00:22.244Z,25.77
2022-08-19T20:02:50.913Z,25.48
2022-08-19T20:05:20.896Z,29.00
2022-08-19T20:08:07.096Z,31.35
2022-08-19T20:10:34.483Z,25.25
2022-08-19T20:13:02.501Z,28.17
2022-08-19T20:15:32.163Z,27.88
2022-08-19T20:18:00.948Z,33.53
2022-08-19T20:20:28.472Z,27.27
2022-08-19T20:22:55.299Z,31.08
2022-08-19T20:25:22.374Z,29.63
2022-08-19T20:27:49.718Z,30.33
2022-08-19T20:30:19.766Z,29.23
2022-08-19T20:32:49.047Z,25.58
2022-08-19T20:35:20.827Z,26.73
2022-08-19T20:40:16.406Z,33.42
2022-08-19T20:42:47.329Z,26.80
2022-08-19T20:45:32.495Z,30.35
2022-08-19T20:48:02.995Z,29.23
2022-08-19T20:50:31.699Z,27.95
2022-08-19T20:52:59.241Z,28.52
2022-08-19T20:55:26.671Z,29.33
2022-08-19T20:57:53.728Z,26.02
2022-08-19T21:00:20.989Z,27.48
2022-08-19T21:02:47.688Z,27.98
2022-08-19T21:05:15.109Z,26.45
2022-08-19T21:07:43.266Z,23.40
2022-08-19T21:10:10.694Z,29.02
2022-08-19T21:12:38.309Z,20.60
2022-08-19T21:15:06.465Z,24.20
2022-08-19T21:17:33.274Z,23.08
2022-08-19T21:20:00.009Z,26.27
2022-08-19T21:22:26.761Z,30.33
2022-08-19T21:24:53.485Z,21.95
2022-08-19T21:27:20.176Z,19.38
2022-08-19T21:29:46.938Z,22.08
2022-08-19T21:32:14.494Z,24.08
2022-08-19T21:34:44.107Z,21.13
2022-08-19T21:37:17.502Z,19.90
2022-08-19T21:39:51.684Z,23.60
2022-08-19T21:42:18.457Z,20.38
2022-08-19T21:44:46.133Z,22.95
2022-08-19T21:47:13.309Z,24.55
2022-08-19T21:49:40.165Z,20.88
2022-08-19T21:52:07.413Z,20.30
2022-08-19T21:54:37.990Z,26.17
2022-08-19T21:57:09.981Z,23.60
2022-08-19T21:59:41.278Z,24.70
2022-08-19T22:02:21.023Z,21.67
2022-08-19T22:04:49.402Z,23.92
2022-08-19T22:07:16.546Z,20.48
2022-08-19T22:09:46.941Z,22.92
2022-08-19T22:12:35.178Z,23.13
2022-08-19T22:15:02.501Z,22.77
2022-08-19T22:17:30.041Z,22.90
2022-08-19T22:19:57.497Z,24.98
2022-08-19T22:22:27.359Z,21.83
2022-08-19T22:25:00.347Z,21.90
2022-08-19T22:27:28.234Z,24.33
2022-08-19T22:29:55.514Z,22.17
2022-08-19T22:32:28.008Z,22.60
2022-08-19T22:34:58.504Z,25.83
2022-08-19T22:37:25.805Z,21.45
2022-08-19T22:39:52.639Z,27.25
2022-08-19T22:42:21.504Z,26.30
2022-08-19T22:44:48.993Z,30.98
2022-08-19T22:47:16.367Z,32.13
2022-08-19T22:49:44.790Z,32.05
2022-08-19T22:52:18.271Z,36.60
2022-08-19T22:54:54.556Z,36.47
2022-08-19T22:57:23.305Z,34.83
2022-08-19T22:59:51.992Z,34.50
2022-08-19T23:02:24.819Z,36.15
2022-08-19T23:04:52.795Z,36.25
2022-08-19T23:07:23.866Z,36.65
2022-08-19T23:09:51.859Z,31.15
2022-08-19T23:12:32.310Z,35.58
2022-08-19T23:15:07.552Z,36.28
2022-08-19T23:17:35.560Z,34.63
2022-08-19T23:20:09.938Z,37.65
2022-08-19T23:22:43.649Z,40.58
2022-08-19T23:25:15.842Z,36.78
2022-08-19T23:28:02.169Z,37.17
2022-08-19T23:30:29.747Z,32.97
2022-08-19T23:33:01.240Z,34.95
2022-08-19T23:35:32.924Z,40.63
2022-08-19T23:40:28.317Z,37.10
2022-08-19T23:42:55.193Z,39.05
2022-08-19T23:45:24.540Z,38.35
2022-08-19T23:47:53.350Z,34.63
2022-08-19T23:50:20.956Z,39.97
2022-08-19T23:52:54.376Z,35.83
2022-08-19T23:55:23.856Z,36.70
2022-08-19T23:57:50.926Z,29.33
